sensor_id;sensor_type;location;lat;lon;timestamp;P1;durP1;ratioP1;P2;durP2;ratioP2
19436;SDS011;9854;50.968;4.168;2024-01-25T00:02:06;83.95;;;13.93;;
19436;SDS011;9854;50.968;4.168;2024-01-25T00:04:32;90.28;;;14.63;;
19436;SDS011;9854;50.968;4.168;2024-01-25T00:06:58;87.15;;;13.65;;
19436;SDS011;9854;50.968;4.168;2024-01-25T00:09:23;85.50;;;14.88;;
19436;SDS011;9854;50.968;4.168;2024-01-25T00:11:51;74.88;;;13.73;;
19436;SDS011;9854;50.968;4.168;2024-01-25T00:14:17;69.57;;;12.98;;
19436;SDS011;9854;50.968;4.168;2024-01-25T00:16:42;85.40;;;14.02;;
19436;SDS011;9854;50.968;4.168;2024-01-25T00:19:08;83.43;;;13.95;;
19436;SDS011;9854;50.968;4.168;2024-01-25T00:21:41;82.88;;;13.48;;
19436;SDS011;9854;50.968;4.168;2024-01-25T00:24:12;83.38;;;13.70;;
19436;SDS011;9854;50.968;4.168;2024-01-25T00:26:38;85.63;;;14.38;;
19436;SDS011;9854;50.968;4.168;2024-01-25T00:29:04;91.68;;;14.38;;
19436;SDS011;9854;50.968;4.168;2024-01-25T00:31:30;79.50;;;14.25;;
19436;SDS011;9854;50.968;4.168;2024-01-25T00:33:56;90.88;;;14.63;;
19436;SDS011;9854;50.968;4.168;2024-01-25T00:36:22;90.35;;;14.57;;
19436;SDS011;9854;50.968;4.168;2024-01-25T00:38:49;75.28;;;14.40;;
19436;SDS011;9854;50.968;4.168;2024-01-25T00:41:17;89.20;;;15.63;;
19436;SDS011;9854;50.968;4.168;2024-01-25T00:43:46;88.78;;;14.63;;
19436;SDS011;9854;50.968;4.168;2024-01-25T00:46:14;79.63;;;14.38;;
19436;SDS011;9854;50.968;4.168;2024-01-25T00:48:40;82.30;;;13.50;;
19436;SDS011;9854;50.968;4.168;2024-01-25T00:51:08;90.53;;;15.38;;
19436;SDS011;9854;50.968;4.168;2024-01-25T00:53:40;79.85;;;14.25;;
19436;SDS011;9854;50.968;4.168;2024-01-25T00:56:05;87.55;;;14.48;;
19436;SDS011;9854;50.968;4.168;2024-01-25T00:58:32;86.63;;;13.65;;
19436;SDS011;9854;50.968;4.168;2024-01-25T01:01:00;82.82;;;14.82;;
19436;SDS011;9854;50.968;4.168;2024-01-25T01:03:28;75.70;;;14.35;;
19436;SDS011;9854;50.968;4.168;2024-01-25T01:05:54;87.25;;;14.20;;
19436;SDS011;9854;50.968;4.168;2024-01-25T01:08:20;96.43;;;15.55;;
19436;SDS011;9854;50.968;4.168;2024-01-25T01:10:46;83.88;;;15.02;;
19436;SDS011;9854;50.968;4.168;2024-01-25T01:13:12;86.10;;;14.23;;
19436;SDS011;9854;50.968;4.168;2024-01-25T01:15:37;83.80;;;14.10;;
19436;SDS011;9854;50.968;4.168;2024-01-25T01:18:03;86.32;;;14.15;;
19436;SDS011;9854;50.968;4.168;2024-01-25T01:20:30;87.32;;;15.00;;
19436;SDS011;9854;50.968;4.168;2024-01-25T01:22:56;92.45;;;15.25;;
19436;SDS011;9854;50.968;4.168;2024-01-25T01:25:22;86.38;;;15.10;;
19436;SDS011;9854;50.968;4.168;2024-01-25T01:27:50;80.83;;;13.97;;
19436;SDS011;9854;50.968;4.168;2024-01-25T01:30:15;85.88;;;14.85;;
19436;SDS011;9854;50.968;4.168;2024-01-25T01:32:41;90.10;;;15.45;;
19436;SDS011;9854;50.968;4.168;2024-01-25T01:35:06;86.07;;;14.10;;
19436;SDS011;9854;50.968;4.168;2024-01-25T01:37:32;85.27;;;14.73;;
19436;SDS011;9854;50.968;4.168;2024-01-25T01:40:00;92.35;;;15.55;;
19436;SDS011;9854;50.968;4.168;2024-01-25T01:42:28;91.53;;;14.15;;
19436;SDS011;9854;50.968;4.168;2024-01-25T01:44:53;77.05;;;13.38;;
19436;SDS011;9854;50.968;4.168;2024-01-25T01:47:21;101.47;;;15.30;;
19436;SDS011;9854;50.968;4.168;2024-01-25T01:49:47;82.72;;;13.63;;
19436;SDS011;9854;50.968;4.168;2024-01-25T01:52:13;83.82;;;13.27;;
19436;SDS011;9854;50.968;4.168;2024-01-25T01:54:39;81.07;;;13.60;;
19436;SDS011;9854;50.968;4.168;2024-01-25T01:57:06;75.80;;;12.98;;
19436;SDS011;9854;50.968;4.168;2024-01-25T01:59:33;81.00;;;15.05;;
19436;SDS011;9854;50.968;4.168;2024-01-25T02:02:01;88.00;;;14.98;;
19436;SDS011;9854;50.968;4.168;2024-01-25T02:04:26;85.90;;;14.85;;
19436;SDS011;9854;50.968;4.168;2024-01-25T02:06:52;83.95;;;14.80;;
19436;SDS011;9854;50.968;4.168;2024-01-25T02:09:20;65.93;;;12.82;;
19436;SDS011;9854;50.968;4.168;2024-01-25T02:11:46;83.32;;;14.25;;
19436;SDS011;9854;50.968;4.168;2024-01-25T02:14:12;91.25;;;14.25;;
19436;SDS011;9854;50.968;4.168;2024-01-25T02:16:40;83.47;;;14.25;;
19436;SDS011;9854;50.968;4.168;2024-01-25T02:19:10;80.60;;;13.90;;
19436;SDS011;9854;50.968;4.168;2024-01-25T02:21:35;82.13;;;14.65;;
19436;SDS011;9854;50.968;4.168;2024-01-25T02:24:03;75.15;;;14.82;;
19436;SDS011;9854;50.968;4.168;2024-01-25T02:26:29;81.40;;;13.88;;
19436;SDS011;9854;50.968;4.168;2024-01-25T02:28:57;69.15;;;13.07;;
19436;SDS011;9854;50.968;4.168;2024-01-25T02:31:25;70.90;;;12.80;;
19436;SDS011;9854;50.968;4.168;2024-01-25T02:33:53;88.38;;;15.00;;
19436;SDS011;9854;50.968;4.168;2024-01-25T02:36:24;79.60;;;15.23;;
19436;SDS011;9854;50.968;4.168;2024-01-25T02:38:50;82.03;;;15.13;;
19436;SDS011;9854;50.968;4.168;2024-01-25T02:41:15;85.63;;;14.48;;
19436;SDS011;9854;50.968;4.168;2024-01-25T02:43:41;76.17;;;14.43;;
19436;SDS011;9854;50.968;4.168;2024-01-25T02:46:07;76.78;;;14.50;;
19436;SDS011;9854;50.968;4.168;2024-01-25T02:48:34;86.73;;;14.77;;
19436;SDS011;9854;50.968;4.168;2024-01-25T02:51:01;82.93;;;14.63;;
19436;SDS011;9854;50.968;4.168;2024-01-25T02:53:30;94.70;;;14.53;;
19436;SDS011;9854;50.968;4.168;2024-01-25T02:55:55;103.17;;;15.40;;
19436;SDS011;9854;50.968;4.168;2024-01-25T02:58:21;91.23;;;15.17;;
19436;SDS011;9854;50.968;4.168;2024-01-25T03:00:47;82.33;;;14.60;;
19436;SDS011;9854;50.968;4.168;2024-01-25T03:03:13;85.47;;;14.88;;
19436;SDS011;9854;50.968;4.168;2024-01-25T03:05:38;66.03;;;12.53;;
19436;SDS011;9854;50.968;4.168;2024-01-25T03:08:04;84.47;;;13.67;;
19436;SDS011;9854;50.968;4.168;2024-01-25T03:10:30;76.73;;;13.87;;
19436;SDS011;9854;50.968;4.168;2024-01-25T03:12:56;82.95;;;14.00;;
19436;SDS011;9854;50.968;4.168;2024-01-25T03:15:22;78.03;;;13.55;;
19436;SDS011;9854;50.968;4.168;2024-01-25T03:17:48;77.57;;;13.00;;
19436;SDS011;9854;50.968;4.168;2024-01-25T03:20:13;85.47;;;13.87;;
19436;SDS011;9854;50.968;4.168;2024-01-25T03:22:39;77.30;;;14.33;;
19436;SDS011;9854;50.968;4.168;2024-01-25T03:25:05;73.10;;;12.90;;
19436;SDS011;9854;50.968;4.168;2024-01-25T03:27:30;71.00;;;12.23;;
19436;SDS011;9854;50.968;4.168;2024-01-25T03:29:56;74.63;;;12.50;;
19436;SDS011;9854;50.968;4.168;2024-01-25T03:32:22;75.20;;;11.97;;
19436;SDS011;9854;50.968;4.168;2024-01-25T03:34:48;79.87;;;13.57;;
19436;SDS011;9854;50.968;4.168;2024-01-25T03:37:14;75.03;;;12.90;;
19436;SDS011;9854;50.968;4.168;2024-01-25T03:39:39;83.90;;;13.80;;
19436;SDS011;9854;50.968;4.168;2024-01-25T03:42:05;77.37;;;13.00;;
19436;SDS011;9854;50.968;4.168;2024-01-25T03:44:30;74.17;;;13.03;;
19436;SDS011;9854;50.968;4.168;2024-01-25T03:46:56;79.97;;;14.43;;
19436;SDS011;9854;50.968;4.168;2024-01-25T03:49:24;81.73;;;13.63;;
19436;SDS011;9854;50.968;4.168;2024-01-25T03:51:50;79.97;;;12.27;;
19436;SDS011;9854;50.968;4.168;2024-01-25T03:54:18;83.77;;;12.83;;
19436;SDS011;9854;50.968;4.168;2024-01-25T03:56:43;75.40;;;13.03;;
19436;SDS011;9854;50.968;4.168;2024-01-25T03:59:11;84.03;;;13.80;;
19436;SDS011;9854;50.968;4.168;2024-01-25T04:01:42;75.57;;;13.47;;
19436;SDS011;9854;50.968;4.168;2024-01-25T04:04:12;80.03;;;13.23;;
19436;SDS011;9854;50.968;4.168;2024-01-25T04:06:43;70.07;;;12.90;;
19436;SDS011;9854;50.968;4.168;2024-01-25T04:09:12;70.83;;;13.63;;
19436;SDS011;9854;50.968;4.168;2024-01-25T04:11:42;77.87;;;12.40;;
19436;SDS011;9854;50.968;4.168;2024-01-25T04:14:08;78.20;;;12.33;;
19436;SDS011;9854;50.968;4.168;2024-01-25T04:16:35;76.60;;;11.97;;
19436;SDS011;9854;50.968;4.168;2024-01-25T04:19:06;73.43;;;13.43;;
19436;SDS011;9854;50.968;4.168;2024-01-25T04:21:32;85.65;;;12.95;;
19436;SDS011;9854;50.968;4.168;2024-01-25T04:23:58;77.00;;;12.57;;
19436;SDS011;9854;50.968;4.168;2024-01-25T04:26:26;83.60;;;12.50;;
19436;SDS011;9854;50.968;4.168;2024-01-25T04:28:53;81.77;;;13.30;;
19436;SDS011;9854;50.968;4.168;2024-01-25T04:31:19;80.65;;;13.75;;
19436;SDS011;9854;50.968;4.168;2024-01-25T04:33:45;87.67;;;12.43;;
19436;SDS011;9854;50.968;4.168;2024-01-25T04:36:11;79.53;;;13.50;;
19436;SDS011;9854;50.968;4.168;2024-01-25T04:38:39;94.07;;;13.97;;
19436;SDS011;9854;50.968;4.168;2024-01-25T04:41:07;83.35;;;14.13;;
19436;SDS011;9854;50.968;4.168;2024-01-25T04:43:35;75.53;;;11.83;;
19436;SDS011;9854;50.968;4.168;2024-01-25T04:46:01;79.33;;;12.83;;
19436;SDS011;9854;50.968;4.168;2024-01-25T04:48:30;73.73;;;11.10;;
19436;SDS011;9854;50.968;4.168;2024-01-25T04:50:56;87.40;;;13.63;;
19436;SDS011;9854;50.968;4.168;2024-01-25T04:53:27;77.03;;;12.10;;
19436;SDS011;9854;50.968;4.168;2024-01-25T04:55:53;73.10;;;11.97;;
19436;SDS011;9854;50.968;4.168;2024-01-25T04:58:19;79.73;;;13.37;;
19436;SDS011;9854;50.968;4.168;2024-01-25T05:00:45;86.03;;;13.67;;
19436;SDS011;9854;50.968;4.168;2024-01-25T05:03:13;78.83;;;12.03;;
19436;SDS011;9854;50.968;4.168;2024-01-25T05:05:39;85.77;;;12.87;;
19436;SDS011;9854;50.968;4.168;2024-01-25T05:08:04;83.87;;;13.87;;
19436;SDS011;9854;50.968;4.168;2024-01-25T05:10:33;80.10;;;13.20;;
19436;SDS011;9854;50.968;4.168;2024-01-25T05:13:01;84.87;;;13.97;;
19436;SDS011;9854;50.968;4.168;2024-01-25T05:15:26;104.87;;;14.70;;
19436;SDS011;9854;50.968;4.168;2024-01-25T05:17:52;70.07;;;13.40;;
19436;SDS011;9854;50.968;4.168;2024-01-25T05:20:20;80.47;;;13.00;;
19436;SDS011;9854;50.968;4.168;2024-01-25T05:22:48;75.87;;;13.37;;
19436;SDS011;9854;50.968;4.168;2024-01-25T05:25:16;89.53;;;18.60;;
19436;SDS011;9854;50.968;4.168;2024-01-25T05:27:41;76.70;;;13.50;;
19436;SDS011;9854;50.968;4.168;2024-01-25T05:30:07;88.97;;;13.83;;
19436;SDS011;9854;50.968;4.168;2024-01-25T05:32:35;76.37;;;12.90;;
19436;SDS011;9854;50.968;4.168;2024-01-25T05:35:01;86.30;;;13.27;;
19436;SDS011;9854;50.968;4.168;2024-01-25T05:37:27;84.90;;;13.97;;
19436;SDS011;9854;50.968;4.168;2024-01-25T05:39:55;89.07;;;13.70;;
19436;SDS011;9854;50.968;4.168;2024-01-25T05:42:21;84.80;;;13.90;;
19436;SDS011;9854;50.968;4.168;2024-01-25T05:44:49;82.43;;;13.90;;
19436;SDS011;9854;50.968;4.168;2024-01-25T05:47:15;77.93;;;13.40;;
19436;SDS011;9854;50.968;4.168;2024-01-25T05:49:41;83.67;;;14.37;;
19436;SDS011;9854;50.968;4.168;2024-01-25T05:52:07;79.20;;;13.83;;
19436;SDS011;9854;50.968;4.168;2024-01-25T05:54:32;90.30;;;14.07;;
19436;SDS011;9854;50.968;4.168;2024-01-25T05:56:58;77.70;;;14.03;;
19436;SDS011;9854;50.968;4.168;2024-01-25T05:59:29;74.23;;;13.03;;
19436;SDS011;9854;50.968;4.168;2024-01-25T06:01:57;106.73;;;15.63;;
19436;SDS011;9854;50.968;4.168;2024-01-25T06:04:23;88.23;;;14.40;;
19436;SDS011;9854;50.968;4.168;2024-01-25T06:06:49;104.30;;;15.67;;
19436;SDS011;9854;50.968;4.168;2024-01-25T06:09:16;90.40;;;14.57;;
19436;SDS011;9854;50.968;4.168;2024-01-25T06:11:44;97.30;;;14.63;;
19436;SDS011;9854;50.968;4.168;2024-01-25T06:14:12;94.03;;;14.60;;
19436;SDS011;9854;50.968;4.168;2024-01-25T06:16:38;99.57;;;14.40;;
19436;SDS011;9854;50.968;4.168;2024-01-25T06:19:03;90.00;;;14.67;;
19436;SDS011;9854;50.968;4.168;2024-01-25T06:21:29;102.73;;;14.97;;
19436;SDS011;9854;50.968;4.168;2024-01-25T06:23:55;94.70;;;15.73;;
19436;SDS011;9854;50.968;4.168;2024-01-25T06:26:20;100.43;;;15.27;;
19436;SDS011;9854;50.968;4.168;2024-01-25T06:28:48;95.33;;;14.63;;
19436;SDS011;9854;50.968;4.168;2024-01-25T06:31:14;99.30;;;15.87;;
19436;SDS011;9854;50.968;4.168;2024-01-25T06:33:42;97.17;;;15.50;;
19436;SDS011;9854;50.968;4.168;2024-01-25T06:36:11;109.60;;;16.67;;
19436;SDS011;9854;50.968;4.168;2024-01-25T06:38:40;111.67;;;17.20;;
19436;SDS011;9854;50.968;4.168;2024-01-25T06:41:05;117.67;;;18.47;;
19436;SDS011;9854;50.968;4.168;2024-01-25T06:43:32;89.70;;;16.33;;
19436;SDS011;9854;50.968;4.168;2024-01-25T06:45:57;99.60;;;17.17;;
19436;SDS011;9854;50.968;4.168;2024-01-25T06:48:25;104.43;;;17.67;;
19436;SDS011;9854;50.968;4.168;2024-01-25T06:50:51;93.33;;;16.50;;
19436;SDS011;9854;50.968;4.168;2024-01-25T06:53:17;101.37;;;16.80;;
19436;SDS011;9854;50.968;4.168;2024-01-25T06:55:43;108.17;;;17.40;;
19436;SDS011;9854;50.968;4.168;2024-01-25T06:58:09;96.30;;;16.10;;
19436;SDS011;9854;50.968;4.168;2024-01-25T07:00:38;114.80;;;17.67;;
19436;SDS011;9854;50.968;4.168;2024-01-25T07:03:04;106.90;;;17.07;;
19436;SDS011;9854;50.968;4.168;2024-01-25T07:05:30;120.20;;;19.40;;
19436;SDS011;9854;50.968;4.168;2024-01-25T07:07:59;98.37;;;18.90;;
19436;SDS011;9854;50.968;4.168;2024-01-25T07:10:25;125.23;;;20.03;;
19436;SDS011;9854;50.968;4.168;2024-01-25T07:12:53;110.53;;;19.83;;
19436;SDS011;9854;50.968;4.168;2024-01-25T07:15:19;111.07;;;20.63;;
19436;SDS011;9854;50.968;4.168;2024-01-25T07:17:45;103.63;;;20.33;;
19436;SDS011;9854;50.968;4.168;2024-01-25T07:20:11;106.80;;;20.33;;
19436;SDS011;9854;50.968;4.168;2024-01-25T07:22:37;102.33;;;21.10;;
19436;SDS011;9854;50.968;4.168;2024-01-25T07:25:03;101.53;;;21.07;;
19436;SDS011;9854;50.968;4.168;2024-01-25T07:27:29;116.13;;;22.37;;
19436;SDS011;9854;50.968;4.168;2024-01-25T07:29:55;90.93;;;20.40;;
19436;SDS011;9854;50.968;4.168;2024-01-25T07:32:21;99.70;;;21.50;;
19436;SDS011;9854;50.968;4.168;2024-01-25T07:34:49;97.53;;;21.03;;
19436;SDS011;9854;50.968;4.168;2024-01-25T07:37:15;96.80;;;20.97;;
19436;SDS011;9854;50.968;4.168;2024-01-25T07:39:48;86.00;;;20.53;;
19436;SDS011;9854;50.968;4.168;2024-01-25T07:42:16;63.30;;;18.37;;
19436;SDS011;9854;50.968;4.168;2024-01-25T07:44:45;56.73;;;17.90;;
19436;SDS011;9854;50.968;4.168;2024-01-25T07:47:11;67.93;;;18.37;;
19436;SDS011;9854;50.968;4.168;2024-01-25T07:49:37;101.47;;;19.90;;
19436;SDS011;9854;50.968;4.168;2024-01-25T07:52:03;94.00;;;19.10;;
19436;SDS011;9854;50.968;4.168;2024-01-25T07:54:29;96.90;;;18.13;;
19436;SDS011;9854;50.968;4.168;2024-01-25T07:56:57;57.70;;;17.83;;
19436;SDS011;9854;50.968;4.168;2024-01-25T07:59:23;51.37;;;18.70;;
19436;SDS011;9854;50.968;4.168;2024-01-25T08:01:48;58.00;;;18.53;;
19436;SDS011;9854;50.968;4.168;2024-01-25T08:04:14;71.77;;;19.33;;
19436;SDS011;9854;50.968;4.168;2024-01-25T08:06:42;87.33;;;22.80;;
19436;SDS011;9854;50.968;4.168;2024-01-25T08:09:08;72.33;;;19.60;;
19436;SDS011;9854;50.968;4.168;2024-01-25T08:11:33;50.63;;;17.80;;
19436;SDS011;9854;50.968;4.168;2024-01-25T08:14:00;46.73;;;16.40;;
19436;SDS011;9854;50.968;4.168;2024-01-25T08:16:26;48.17;;;18.03;;
19436;SDS011;9854;50.968;4.168;2024-01-25T08:18:53;51.57;;;16.73;;
19436;SDS011;9854;50.968;4.168;2024-01-25T08:21:19;54.73;;;17.50;;
19436;SDS011;9854;50.968;4.168;2024-01-25T08:23:45;45.30;;;17.33;;
19436;SDS011;9854;50.968;4.168;2024-01-25T08:26:10;45.17;;;17.37;;
19436;SDS011;9854;50.968;4.168;2024-01-25T08:28:40;38.40;;;15.93;;
19436;SDS011;9854;50.968;4.168;2024-01-25T08:31:08;49.40;;;17.43;;
19436;SDS011;9854;50.968;4.168;2024-01-25T08:33:34;40.37;;;16.67;;
19436;SDS011;9854;50.968;4.168;2024-01-25T08:35:59;39.43;;;17.20;;
19436;SDS011;9854;50.968;4.168;2024-01-25T08:38:30;40.97;;;17.30;;
19436;SDS011;9854;50.968;4.168;2024-01-25T08:40:56;50.57;;;18.10;;
19436;SDS011;9854;50.968;4.168;2024-01-25T08:43:21;52.10;;;18.57;;
19436;SDS011;9854;50.968;4.168;2024-01-25T08:45:49;52.47;;;18.77;;
19436;SDS011;9854;50.968;4.168;2024-01-25T08:48:20;41.37;;;18.27;;
19436;SDS011;9854;50.968;4.168;2024-01-25T08:50:45;47.67;;;18.37;;
19436;SDS011;9854;50.968;4.168;2024-01-25T08:53:18;46.40;;;18.90;;
19436;SDS011;9854;50.968;4.168;2024-01-25T08:55:44;54.30;;;19.90;;
19436;SDS011;9854;50.968;4.168;2024-01-25T08:58:11;58.50;;;21.17;;
19436;SDS011;9854;50.968;4.168;2024-01-25T09:00:37;45.77;;;20.43;;
19436;SDS011;9854;50.968;4.168;2024-01-25T09:03:03;48.63;;;18.90;;
19436;SDS011;9854;50.968;4.168;2024-01-25T09:05:29;58.80;;;23.00;;
19436;SDS011;9854;50.968;4.168;2024-01-25T09:07:56;52.07;;;20.87;;
19436;SDS011;9854;50.968;4.168;2024-01-25T09:10:24;46.03;;;19.40;;
19436;SDS011;9854;50.968;4.168;2024-01-25T09:12:52;38.60;;;18.33;;
19436;SDS011;9854;50.968;4.168;2024-01-25T09:15:18;43.97;;;19.73;;
19436;SDS011;9854;50.968;4.168;2024-01-25T09:17:44;47.53;;;19.53;;
19436;SDS011;9854;50.968;4.168;2024-01-25T09:20:10;53.90;;;20.67;;
19436;SDS011;9854;50.968;4.168;2024-01-25T09:22:36;49.97;;;20.63;;
19436;SDS011;9854;50.968;4.168;2024-01-25T09:25:02;50.97;;;20.00;;
19436;SDS011;9854;50.968;4.168;2024-01-25T09:27:28;39.50;;;19.00;;
19436;SDS011;9854;50.968;4.168;2024-01-25T09:29:56;42.33;;;19.67;;
19436;SDS011;9854;50.968;4.168;2024-01-25T09:32:22;49.70;;;21.53;;
19436;SDS011;9854;50.968;4.168;2024-01-25T09:34:48;59.37;;;21.83;;
19436;SDS011;9854;50.968;4.168;2024-01-25T09:37:13;47.83;;;20.90;;
19436;SDS011;9854;50.968;4.168;2024-01-25T09:39:40;46.93;;;20.83;;
19436;SDS011;9854;50.968;4.168;2024-01-25T09:42:07;60.37;;;23.57;;
19436;SDS011;9854;50.968;4.168;2024-01-25T09:44:35;59.22;;;21.98;;
19436;SDS011;9854;50.968;4.168;2024-01-25T09:47:17;59.93;;;21.90;;
19436;SDS011;9854;50.968;4.168;2024-01-25T09:49:45;59.80;;;21.83;;
19436;SDS011;9854;50.968;4.168;2024-01-25T09:52:13;60.50;;;22.30;;
19436;SDS011;9854;50.968;4.168;2024-01-25T09:54:40;53.10;;;20.90;;
19436;SDS011;9854;50.968;4.168;2024-01-25T09:57:07;57.25;;;21.73;;
19436;SDS011;9854;50.968;4.168;2024-01-25T09:59:38;60.13;;;23.33;;
19436;SDS011;9854;50.968;4.168;2024-01-25T10:02:04;58.60;;;22.93;;
19436;SDS011;9854;50.968;4.168;2024-01-25T10:04:30;65.57;;;23.43;;
19436;SDS011;9854;50.968;4.168;2024-01-25T10:06:56;60.03;;;22.37;;
19436;SDS011;9854;50.968;4.168;2024-01-25T10:09:25;62.77;;;22.03;;
19436;SDS011;9854;50.968;4.168;2024-01-25T10:11:52;68.03;;;21.40;;
19436;SDS011;9854;50.968;4.168;2024-01-25T10:14:17;64.05;;;21.83;;
19436;SDS011;9854;50.968;4.168;2024-01-25T10:16:45;56.67;;;22.47;;
19436;SDS011;9854;50.968;4.168;2024-01-25T10:19:11;66.53;;;27.05;;
19436;SDS011;9854;50.968;4.168;2024-01-25T10:21:37;61.83;;;24.90;;
19436;SDS011;9854;50.968;4.168;2024-01-25T10:24:06;58.50;;;22.77;;
19436;SDS011;9854;50.968;4.168;2024-01-25T10:26:31;54.08;;;21.67;;
19436;SDS011;9854;50.968;4.168;2024-01-25T10:29:00;65.68;;;19.23;;
19436;SDS011;9854;50.968;4.168;2024-01-25T10:31:26;59.30;;;18.33;;
19436;SDS011;9854;50.968;4.168;2024-01-25T10:33:55;68.78;;;20.00;;
19436;SDS011;9854;50.968;4.168;2024-01-25T10:36:24;67.05;;;20.05;;
19436;SDS011;9854;50.968;4.168;2024-01-25T10:38:52;60.78;;;19.90;;
19436;SDS011;9854;50.968;4.168;2024-01-25T10:41:21;61.83;;;20.73;;
19436;SDS011;9854;50.968;4.168;2024-01-25T10:43:50;52.03;;;18.15;;
19436;SDS011;9854;50.968;4.168;2024-01-25T10:46:16;58.72;;;19.98;;
19436;SDS011;9854;50.968;4.168;2024-01-25T10:48:41;50.95;;;17.63;;
19436;SDS011;9854;50.968;4.168;2024-01-25T10:51:11;49.60;;;16.88;;
19436;SDS011;9854;50.968;4.168;2024-01-25T10:53:41;55.88;;;17.88;;
19436;SDS011;9854;50.968;4.168;2024-01-25T10:56:07;50.78;;;17.10;;
19436;SDS011;9854;50.968;4.168;2024-01-25T10:58:32;57.03;;;17.80;;
19436;SDS011;9854;50.968;4.168;2024-01-25T11:01:01;50.75;;;17.45;;
19436;SDS011;9854;50.968;4.168;2024-01-25T11:03:31;53.17;;;17.27;;
19436;SDS011;9854;50.968;4.168;2024-01-25T11:06:07;54.00;;;17.17;;
19436;SDS011;9854;50.968;4.168;2024-01-25T11:08:37;57.08;;;17.73;;
19436;SDS011;9854;50.968;4.168;2024-01-25T11:11:07;71.25;;;19.65;;
19436;SDS011;9854;50.968;4.168;2024-01-25T11:13:38;75.88;;;19.35;;
19436;SDS011;9854;50.968;4.168;2024-01-25T11:16:15;72.00;;;18.90;;
19436;SDS011;9854;50.968;4.168;2024-01-25T11:18:53;74.90;;;19.50;;
19436;SDS011;9854;50.968;4.168;2024-01-25T11:21:27;64.00;;;19.55;;
19436;SDS011;9854;50.968;4.168;2024-01-25T11:24:01;68.53;;;19.40;;
19436;SDS011;9854;50.968;4.168;2024-01-25T11:26:27;57.83;;;18.42;;
19436;SDS011;9854;50.968;4.168;2024-01-25T11:28:53;64.88;;;18.38;;
19436;SDS011;9854;50.968;4.168;2024-01-25T11:31:19;64.03;;;17.92;;
19436;SDS011;9854;50.968;4.168;2024-01-25T11:33:46;66.38;;;17.63;;
19436;SDS011;9854;50.968;4.168;2024-01-25T11:36:12;61.40;;;17.13;;
19436;SDS011;9854;50.968;4.168;2024-01-25T11:38:38;60.10;;;16.60;;
19436;SDS011;9854;50.968;4.168;2024-01-25T11:41:03;72.03;;;18.23;;
19436;SDS011;9854;50.968;4.168;2024-01-25T11:43:31;62.85;;;16.27;;
19436;SDS011;9854;50.968;4.168;2024-01-25T11:45:57;57.28;;;15.82;;
19436;SDS011;9854;50.968;4.168;2024-01-25T11:48:26;51.92;;;14.85;;
19436;SDS011;9854;50.968;4.168;2024-01-25T11:50:54;52.50;;;14.07;;
19436;SDS011;9854;50.968;4.168;2024-01-25T11:53:20;48.00;;;13.35;;
19436;SDS011;9854;50.968;4.168;2024-01-25T11:55:46;42.45;;;12.88;;
19436;SDS011;9854;50.968;4.168;2024-01-25T11:58:12;56.53;;;13.80;;
19436;SDS011;9854;50.968;4.168;2024-01-25T12:00:38;45.72;;;13.02;;
19436;SDS011;9854;50.968;4.168;2024-01-25T12:03:04;58.17;;;13.40;;
19436;SDS011;9854;50.968;4.168;2024-01-25T12:05:32;36.25;;;11.35;;
19436;SDS011;9854;50.968;4.168;2024-01-25T12:07:58;43.38;;;11.93;;
19436;SDS011;9854;50.968;4.168;2024-01-25T12:10:24;45.53;;;12.52;;
19436;SDS011;9854;50.968;4.168;2024-01-25T12:12:51;43.53;;;11.60;;
19436;SDS011;9854;50.968;4.168;2024-01-25T12:15:16;51.72;;;12.95;;
19436;SDS011;9854;50.968;4.168;2024-01-25T12:17:42;53.25;;;13.38;;
19436;SDS011;9854;50.968;4.168;2024-01-25T12:20:08;34.20;;;11.82;;
19436;SDS011;9854;50.968;4.168;2024-01-25T12:22:38;47.80;;;10.98;;
19436;SDS011;9854;50.968;4.168;2024-01-25T12:25:08;27.63;;;9.32;;
19436;SDS011;9854;50.968;4.168;2024-01-25T12:27:38;30.90;;;10.07;;
19436;SDS011;9854;50.968;4.168;2024-01-25T12:30:06;29.23;;;9.27;;
19436;SDS011;9854;50.968;4.168;2024-01-25T12:32:33;36.78;;;9.57;;
19436;SDS011;9854;50.968;4.168;2024-01-25T12:35:00;28.17;;;10.13;;
19436;SDS011;9854;50.968;4.168;2024-01-25T12:37:26;29.55;;;9.35;;
19436;SDS011;9854;50.968;4.168;2024-01-25T12:39:52;24.73;;;8.00;;
19436;SDS011;9854;50.968;4.168;2024-01-25T12:42:19;24.70;;;8.85;;
19436;SDS011;9854;50.968;4.168;2024-01-25T12:44:45;28.33;;;9.20;;
19436;SDS011;9854;50.968;4.168;2024-01-25T12:47:11;26.55;;;9.57;;
19436;SDS011;9854;50.968;4.168;2024-01-25T12:49:41;25.65;;;8.57;;
19436;SDS011;9854;50.968;4.168;2024-01-25T12:52:08;28.15;;;8.80;;
19436;SDS011;9854;50.968;4.168;2024-01-25T12:54:40;19.33;;;7.65;;
19436;SDS011;9854;50.968;4.168;2024-01-25T12:57:06;20.33;;;7.75;;
19436;SDS011;9854;50.968;4.168;2024-01-25T12:59:32;19.00;;;7.68;;
19436;SDS011;9854;50.968;4.168;2024-01-25T13:01:59;14.70;;;7.85;;
19436;SDS011;9854;50.968;4.168;2024-01-25T13:04:24;18.45;;;7.65;;
19436;SDS011;9854;50.968;4.168;2024-01-25T13:06:53;19.10;;;7.05;;
19436;SDS011;9854;50.968;4.168;2024-01-25T13:09:23;13.55;;;6.32;;
19436;SDS011;9854;50.968;4.168;2024-01-25T13:11:49;11.35;;;6.40;;
19436;SDS011;9854;50.968;4.168;2024-01-25T13:14:17;13.40;;;6.28;;
19436;SDS011;9854;50.968;4.168;2024-01-25T13:16:43;14.60;;;6.32;;
19436;SDS011;9854;50.968;4.168;2024-01-25T13:19:09;12.07;;;5.68;;
19436;SDS011;9854;50.968;4.168;2024-01-25T13:21:36;8.85;;;5.53;;
19436;SDS011;9854;50.968;4.168;2024-01-25T13:24:02;14.15;;;5.55;;
19436;SDS011;9854;50.968;4.168;2024-01-25T13:26:28;11.77;;;6.03;;
19436;SDS011;9854;50.968;4.168;2024-01-25T13:28:53;12.07;;;6.10;;
19436;SDS011;9854;50.968;4.168;2024-01-25T13:31:19;9.38;;;5.93;;
19436;SDS011;9854;50.968;4.168;2024-01-25T13:33:47;7.82;;;6.00;;
19436;SDS011;9854;50.968;4.168;2024-01-25T13:36:15;11.77;;;6.00;;
19436;SDS011;9854;50.968;4.168;2024-01-25T13:38:43;9.88;;;5.97;;
19436;SDS011;9854;50.968;4.168;2024-01-25T13:41:09;9.25;;;5.82;;
19436;SDS011;9854;50.968;4.168;2024-01-25T13:43:37;14.55;;;6.35;;
19436;SDS011;9854;50.968;4.168;2024-01-25T13:46:02;12.93;;;7.30;;
19436;SDS011;9854;50.968;4.168;2024-01-25T13:48:28;12.95;;;7.05;;
19436;SDS011;9854;50.968;4.168;2024-01-25T13:50:53;10.52;;;7.22;;
19436;SDS011;9854;50.968;4.168;2024-01-25T13:53:19;14.60;;;8.23;;
19436;SDS011;9854;50.968;4.168;2024-01-25T13:55:45;11.95;;;8.13;;
19436;SDS011;9854;50.968;4.168;2024-01-25T13:58:10;11.43;;;8.25;;
19436;SDS011;9854;50.968;4.168;2024-01-25T14:00:36;14.85;;;9.18;;
19436;SDS011;9854;50.968;4.168;2024-01-25T14:03:02;13.48;;;8.75;;
19436;SDS011;9854;50.968;4.168;2024-01-25T14:05:28;16.52;;;9.82;;
19436;SDS011;9854;50.968;4.168;2024-01-25T14:07:53;15.35;;;10.00;;
19436;SDS011;9854;50.968;4.168;2024-01-25T14:10:19;16.80;;;10.27;;
19436;SDS011;9854;50.968;4.168;2024-01-25T14:12:45;16.75;;;9.45;;
19436;SDS011;9854;50.968;4.168;2024-01-25T14:15:11;18.08;;;11.10;;
19436;SDS011;9854;50.968;4.168;2024-01-25T14:17:39;15.02;;;10.57;;
19436;SDS011;9854;50.968;4.168;2024-01-25T14:20:05;18.63;;;11.40;;
19436;SDS011;9854;50.968;4.168;2024-01-25T14:22:31;15.18;;;11.35;;
19436;SDS011;9854;50.968;4.168;2024-01-25T14:24:58;18.45;;;11.55;;
19436;SDS011;9854;50.968;4.168;2024-01-25T14:27:26;14.85;;;11.25;;
19436;SDS011;9854;50.968;4.168;2024-01-25T14:29:51;19.30;;;12.13;;
19436;SDS011;9854;50.968;4.168;2024-01-25T14:32:20;20.85;;;12.50;;
19436;SDS011;9854;50.968;4.168;2024-01-25T14:34:47;18.25;;;13.05;;